Time;durP1;ratioP1;P1;durP2;ratioP2;P2;SDS_P1;SDS_P2;PMS_P1;PMS_P2;Temp;Humidity;BMP_temperature;BMP_pressure;BME280_temperature;BME280_humidity;BME280_pressure;Samples;Min_cycle;Max_cycle;Signal;HPM_P1;HPM_P2
2023/02/19 00:01:07;;;;;;;7.13;3.00;;;;;;;3.19;57.43;101513.31;4959132;28;20496;-68
2023/02/19 00:03:32;;;;;;;9.45;2.75;;;;;;;3.04;57.82;101509.84;4960678;28;20031;-67
2023/02/19 00:06:01;;;;;;;4.85;2.65;;;;;;;2.76;59.54;101505.50;4959684;28;20519;-71
2023/02/19 00:08:30;;;;;;;7.68;3.47;;;;;;;3.01;58.82;101509.84;4953994;28;20034;-68
2023/02/19 00:11:02;;;;;;;11.43;3.03;;;;;;;2.89;58.77;101506.38;4959480;28;20030;-66
2023/02/19 00:13:29;;;;;;;8.50;3.03;;;;;;;3.17;57.62;101506.41;4960516;28;20035;-66
2023/02/19 00:15:55;;;;;;;6.20;2.58;;;;;;;3.15;57.21;101502.97;4957617;28;20470;-66
2023/02/19 00:18:22;;;;;;;5.68;2.55;;;;;;;3.02;58.05;101502.09;4962720;28;20069;-66
2023/02/19 00:20:47;;;;;;;6.72;2.38;;;;;;;3.06;57.95;101501.22;4942915;28;20137;-65
2023/02/19 00:23:13;;;;;;;7.00;3.30;;;;;;;2.93;58.06;101502.06;4958403;28;20068;-66
2023/02/19 00:25:38;;;;;;;8.98;3.60;;;;;;;3.01;57.83;101500.38;4950501;28;20061;-71
2023/02/19 00:28:04;;;;;;;10.25;3.97;;;;;;;2.88;58.18;101503.78;4957584;28;20039;-68
2023/02/19 00:30:29;;;;;;;6.75;3.45;;;;;;;3.00;57.90;101498.63;4953444;28;20051;-66
2023/02/19 00:32:55;;;;;;;9.20;3.45;;;;;;;2.85;58.20;101493.47;4956717;28;20164;-63
2023/02/19 00:35:20;;;;;;;8.95;3.90;;;;;;;2.79;58.74;101504.63;4962522;28;20046;-63
2023/02/19 00:37:46;;;;;;;7.07;3.28;;;;;;;2.89;58.48;101496.06;4960202;28;20045;-67
2023/02/19 00:40:11;;;;;;;6.45;2.70;;;;;;;2.86;58.35;101490.00;4957419;28;20041;-67
2023/02/19 00:42:37;;;;;;;6.55;3.35;;;;;;;2.98;58.07;101496.06;4957831;28;20026;-68
2023/02/19 00:45:03;;;;;;;6.55;2.65;;;;;;;2.86;58.00;101490.88;4955746;28;20090;-68
2023/02/19 00:47:28;;;;;;;6.40;2.88;;;;;;;2.75;58.76;101497.72;4954001;28;20380;-67
2023/02/19 00:49:54;;;;;;;9.25;3.92;;;;;;;2.90;57.89;101499.50;4957167;28;20488;-67
2023/02/19 00:52:19;;;;;;;6.68;3.40;;;;;;;2.90;58.23;101499.50;4955595;28;20034;-67
2023/02/19 00:54:45;;;;;;;6.65;3.08;;;;;;;2.84;58.39;101494.31;4953026;28;20043;-66
2023/02/19 00:57:10;;;;;;;6.65;3.58;;;;;;;2.92;58.15;101492.63;4957561;28;20045;-65
2023/02/19 00:59:35;;;;;;;6.53;3.72;;;;;;;2.93;57.89;101499.50;4952094;28;20058;-65
2023/02/19 01:02:01;;;;;;;7.57;4.38;;;;;;;3.01;57.53;101502.09;4959580;28;20034;-65
2023/02/19 01:04:28;;;;;;;4.95;3.05;;;;;;;2.97;58.08;101498.63;4959192;28;20043;-67
2023/02/19 01:06:54;;;;;;;10.20;3.47;;;;;;;2.85;58.44;101514.13;4958853;28;20040;-68
2023/02/19 01:09:20;;;;;;;6.90;3.13;;;;;;;2.88;58.33;101508.97;4953699;28;20042;-64
2023/02/19 01:11:45;;;;;;;8.75;4.35;;;;;;;2.92;57.88;101516.72;4953401;28;20066;-63
2023/02/19 01:14:11;;;;;;;7.25;4.25;;;;;;;3.11;57.25;101512.47;4964650;28;20097;-62
2023/02/19 01:16:36;;;;;;;13.65;3.42;;;;;;;3.17;57.38;101517.59;4963272;28;20126;-63
2023/02/19 01:19:02;;;;;;;7.93;2.67;;;;;;;3.09;57.82;101514.16;4956794;28;20039;-62
2023/02/19 01:21:28;;;;;;;4.07;3.05;;;;;;;3.18;57.17;101519.34;4972017;28;20033;-64
2023/02/19 01:23:55;;;;;;;9.82;3.72;;;;;;;3.22;57.26;101519.34;4954349;28;20035;-65
2023/02/19 01:26:24;;;;;;;9.20;3.25;;;;;;;3.29;57.33;101511.63;4969789;28;20066;-63
2023/02/19 01:28:49;;;;;;;10.07;4.63;;;;;;;3.23;57.17;101510.75;4960294;28;20039;-64
2023/02/19 01:31:18;;;;;;;6.78;3.13;;;;;;;3.19;57.15;101510.72;4955624;28;20515;-66
2023/02/19 01:34:05;;;;;;;6.07;2.75;;;;;;;3.07;57.62;101512.41;4984999;28;20093;-65
2023/02/19 01:36:32;;;;;;;7.10;2.75;;;;;;;3.25;57.10;101514.16;4935174;28;20580;-64
2023/02/19 01:39:03;;;;;;;7.07;2.70;;;;;;;3.19;57.27;101517.63;4945731;28;20081;-64
2023/02/19 01:41:37;;;;;;;8.75;2.58;;;;;;;3.09;57.50;101518.44;4953283;28;20037;-66
2023/02/19 01:44:13;;;;;;;5.68;2.35;;;;;;;3.31;57.10;101519.38;4975306;28;20054;-64
2023/02/19 01:46:43;;;;;;;6.10;2.00;;;;;;;3.23;57.52;101521.06;4956664;28;20026;-62
2023/02/19 01:49:11;;;;;;;6.95;1.70;;;;;;;3.28;57.34;101520.19;4979113;28;20050;-65
2023/02/19 01:51:40;;;;;;;6.68;1.70;;;;;;;3.29;57.49;101521.09;4956833;28;20069;-66
2023/02/19 01:54:09;;;;;;;7.63;1.88;;;;;;;3.09;57.51;101519.34;4955972;28;20062;-67
2023/02/19 01:56:37;;;;;;;3.25;1.27;;;;;;;3.25;56.85;101522.78;4964576;28;20211;-66
2023/02/19 01:59:04;;;;;;;3.45;1.67;;;;;;;3.32;56.94;101521.13;4960196;28;20043;-67
2023/02/19 02:01:30;;;;;;;5.97;1.25;;;;;;;3.15;57.03;101521.06;4944835;28;20062;-66
2023/02/19 02:03:56;;;;;;;3.22;1.17;;;;;;;3.06;57.63;101519.31;4953966;28;20169;-69
2023/02/19 02:06:36;;;;;;;3.58;1.83;;;;;;;3.02;57.56;101520.16;4959547;28;20026;-66
2023/02/19 02:11:51;;;;;;;3.47;1.45;;;;;;;3.11;57.10;101521.91;4954145;28;20034;-66
2023/02/19 02:14:20;;;;;;;2.50;0.70;;;;;;;3.05;57.47;101522.78;4962154;28;20049;-70
2023/02/19 02:17:04;;;;;;;5.20;1.40;;;;;;;2.92;57.53;101518.44;4939983;28;20042;-69
2023/02/19 02:20:09;;;;;;;1.42;0.80;;;;;;;2.91;57.99;101520.16;4970158;28;20046;-70
2023/02/19 02:22:39;;;;;;;4.15;1.33;;;;;;;2.92;57.70;101532.19;4937796;28;20038;-68
2023/02/19 02:25:45;;;;;;;3.08;0.57;;;;;;;2.99;57.61;101530.50;4955353;28;20204;-67
2023/02/19 02:29:02;;;;;;;2.67;0.20;;;;;;;2.83;57.97;101533.91;4953820;28;20069;-65
2023/02/19 02:31:36;;;;;;;0.90;0.20;;;;;;;2.86;57.53;101534.75;4960427;28;20058;-65
2023/02/19 02:34:28;;;;;;;2.28;0.10;;;;;;;2.78;57.28;101539.06;4958326;28;20499;-66
2023/02/19 02:36:56;;;;;;;1.75;0.10;;;;;;;2.73;57.34;101541.63;4951238;28;20712;-63
2023/02/19 02:39:25;;;;;;;0.65;0.10;;;;;;;2.72;57.57;101539.88;4954637;28;20042;-69
2023/02/19 02:47:40;;;;;;;2.83;0.10;;;;;;;2.68;57.46;101548.47;4952616;28;20038;-67
2023/02/19 02:50:10;;;;;;;1.60;0.00;;;;;;;2.64;57.94;101548.47;4945770;28;20078;-67
2023/02/19 02:55:25;;;;;;;1.55;0.13;;;;;;;2.40;57.72;101559.53;4951695;28;20425;-67
2023/02/19 02:57:51;;;;;;;1.48;0.15;;;;;;;2.45;57.78;101560.44;4960427;28;20046;-66
2023/02/19 03:00:17;;;;;;;1.85;0.13;;;;;;;2.31;57.55;101563.81;4950562;28;20109;-68
2023/02/19 03:02:42;;;;;;;0.90;0.00;;;;;;;2.48;57.03;101576.78;4954615;28;20026;-66
2023/02/19 03:08:29;;;;;;;3.55;0.10;;;;;;;2.35;57.10;101574.97;4955198;28;20230;-70
2023/02/19 03:19:34;;;;;;;0.85;0.00;;;;;;;2.47;57.12;101581.94;4968216;28;20039;-73
2023/02/19 03:22:10;;;;;;;1.05;0.05;;;;;;;2.60;56.88;101580.28;4944406;28;20077;-72
2023/02/19 03:27:31;;;;;;;0.88;0.13;;;;;;;2.50;56.29;101589.69;4961285;28;20058;-72
2023/02/19 03:30:05;;;;;;;0.88;0.10;;;;;;;2.50;56.28;101605.19;4941644;28;20035;-64
2023/02/19 03:32:58;;;;;;;3.28;0.13;;;;;;;2.60;56.55;101614.72;4958954;28;20500;-66
2023/02/19 03:35:33;;;;;;;2.88;0.20;;;;;;;2.54;56.82;101625.00;4950436;28;20042;-68
2023/02/19 03:38:26;;;;;;;4.72;0.10;;;;;;;2.63;56.61;101624.19;4953467;28;20026;-67
2023/02/19 03:41:01;;;;;;;2.50;0.47;;;;;;;2.85;56.10;101635.47;4952378;28;20078;-68
2023/02/19 03:43:43;;;;;;;4.20;0.30;;;;;;;2.72;56.20;101632.81;4956525;28;20117;-66
2023/02/19 03:46:31;;;;;;;1.83;0.10;;;;;;;2.84;56.00;101641.47;4964759;28;20023;-67
2023/02/19 03:49:09;;;;;;;1.13;0.25;;;;;;;2.66;55.99;101643.09;4958988;28;20046;-68
2023/02/19 03:51:49;;;;;;;8.68;0.10;;;;;;;2.92;55.83;101647.56;4959077;28;20031;-66
2023/02/19 03:54:17;;;;;;;2.20;0.10;;;;;;;2.92;55.64;101657.88;4971306;28;20047;-67
2023/02/19 03:56:51;;;;;;;3.42;0.50;;;;;;;2.91;55.71;101657.03;4958635;28;20069;-69
2023/02/19 03:59:26;;;;;;;2.63;0.10;;;;;;;2.94;55.37;101653.59;4954809;28;20065;-67
2023/02/19 04:02:05;;;;;;;3.80;0.10;;;;;;;2.95;55.59;101663.91;4956459;28;20030;-68
2023/02/19 04:04:52;;;;;;;0.32;0.22;;;;;;;2.98;55.58;101663.94;4955601;28;20046;-67
2023/02/19 04:07:18;;;;;;;0.85;0.10;;;;;;;2.96;55.66;101670.81;4960450;28;20075;-68
2023/02/19 04:09:49;;;;;;;4.30;0.13;;;;;;;3.00;55.18;101673.41;4954083;28;20057;-68
2023/02/19 04:12:18;;;;;;;1.92;0.35;;;;;;;2.98;55.72;101676.00;4941535;28;20035;-68
2023/02/19 04:15:00;;;;;;;3.47;0.10;;;;;;;2.86;56.08;101684.53;4953402;28;20050;-67
2023/02/19 04:17:59;;;;;;;0.90;0.30;;;;;;;2.75;55.91;101694.78;4957902;28;20399;-68
2023/02/19 04:20:28;;;;;;;7.65;0.30;;;;;;;2.97;56.05;101700.94;4963670;28;20097;-68
2023/02/19 04:22:55;;;;;;;1.00;0.10;;;;;;;2.90;55.54;101706.06;4955636;28;20035;-68
2023/02/19 04:25:22;;;;;;;1.48;0.10;;;;;;;3.02;55.50;101708.69;4957662;28;20038;-66
2023/02/19 04:27:48;;;;;;;0.30;0.00;;;;;;;2.81;55.69;101713.78;4953821;28;20031;-68
2023/02/19 04:30:15;;;;;;;2.53;0.10;;;;;;;2.86;55.71;101712.91;4958127;28;20625;-71
2023/02/19 04:32:40;;;;;;;0.90;0.10;;;;;;;3.01;55.31;101725.06;4955142;28;20031;-72
2023/02/19 04:35:06;;;;;;;2.72;0.20;;;;;;;2.94;55.05;101725.91;4954730;28;20035;-68
2023/02/19 04:37:31;;;;;;;2.63;0.20;;;;;;;2.95;55.56;101738.78;4953413;28;20460;-67
2023/02/19 04:39:57;;;;;;;3.45;0.20;;;;;;;2.90;55.28;101734.47;4953854;28;20519;-67
2023/02/19 04:42:22;;;;;;;4.88;0.10;;;;;;;2.88;55.19;101747.38;4956878;28;20034;-67
2023/02/19 04:44:48;;;;;;;2.53;0.08;;;;;;;2.85;55.77;101746.50;4971560;28;20066;-66
2023/02/19 04:47:16;;;;;;;1.85;0.00;;;;;;;2.87;55.61;101744.78;4953786;28;20097;-63
2023/02/19 04:49:42;;;;;;;1.23;0.47;;;;;;;2.88;55.38;101751.66;4954720;28;20769;-66
2023/02/19 04:52:08;;;;;;;4.28;0.10;;;;;;;2.92;55.00;101753.44;4959267;28;20973;-67
2023/02/19 04:54:34;;;;;;;4.18;0.30;;;;;;;2.89;55.04;101763.72;4952399;28;20142;-66
2023/02/19 04:56:59;;;;;;;0.95;0.10;;;;;;;2.87;55.20;101768.03;4959230;28;20034;-66
2023/02/19 04:59:24;;;;;;;3.78;0.25;;;;;;;2.86;55.32;101779.19;4954350;28;20689;-67
2023/02/19 05:01:50;;;;;;;5.30;0.08;;;;;;;2.86;55.22;101782.63;4955662;28;20086;-70
2023/02/19 05:04:15;;;;;;;2.72;0.03;;;;;;;2.87;55.44;101788.69;4952778;28;20055;-70
2023/02/19 05:06:41;;;;;;;3.67;0.10;;;;;;;2.82;55.72;101782.59;4955542;28;20106;-69
2023/02/19 05:09:06;;;;;;;1.75;0.10;;;;;;;2.75;55.53;101792.88;4955001;28;20102;-70
2023/02/19 05:11:32;;;;;;;2.17;0.10;;;;;;;2.65;55.76;101801.44;4954379;28;20044;-69
2023/02/19 05:13:57;;;;;;;1.75;0.00;;;;;;;2.63;56.12;101792.81;4953343;28;20074;-65
2023/02/19 05:16:22;;;;;;;3.95;0.10;;;;;;;2.75;56.01;101789.44;4953531;28;20050;-65
2023/02/19 05:18:48;;;;;;;2.97;0.10;;;;;;;2.80;55.77;101792.94;4955359;28;20042;-67
2023/02/19 05:21:14;;;;;;;2.40;0.10;;;;;;;2.83;55.59;101802.44;4955376;28;20579;-67
2023/02/19 05:23:40;;;;;;;1.67;0.10;;;;;;;2.84;55.89;101798.97;4953998;28;20053;-66
2023/02/19 05:26:16;;;;;;;1.45;0.03;;;;;;;2.74;55.69;101804.09;4955972;28;20038;-67
2023/02/19 05:28:43;;;;;;;0.55;0.00;;;;;;;2.81;55.71;101801.56;4954574;28;20170;-68
2023/02/19 05:31:10;;;;;;;0.70;0.08;;;;;;;2.85;55.68;101808.47;4956006;28;20034;-68
2023/02/19 05:33:36;;;;;;;8.73;0.50;;;;;;;2.94;55.83;101808.53;4953867;28;20054;-68
2023/02/19 05:36:08;;;;;;;3.08;0.10;;;;;;;2.97;55.41;101818.88;4960040;28;20034;-68
2023/02/19 05:38:34;;;;;;;5.60;0.20;;;;;;;2.94;55.62;101816.28;4954730;28;20491;-67
2023/02/19 05:41:15;;;;;;;3.50;0.20;;;;;;;2.98;55.45;101824.06;4970468;28;20046;-66
2023/02/19 05:43:43;;;;;;;4.00;0.00;;;;;;;2.98;55.29;101825.78;4952619;28;21479;-65
2023/02/19 05:46:10;;;;;;;1.75;0.10;;;;;;;2.91;55.91;101826.56;4955144;28;20038;-66
2023/02/19 05:48:35;;;;;;;0.65;0.10;;;;;;;2.94;55.47;101829.19;4950783;28;20530;-66
2023/02/19 05:51:08;;;;;;;0.85;0.03;;;;;;;2.94;55.63;101839.53;4957280;28;20499;-67
2023/02/19 05:53:34;;;;;;;3.03;0.10;;;;;;;2.88;55.46;101842.91;4953422;28;20068;-67
2023/02/19 05:55:59;;;;;;;3.20;0.10;;;;;;;2.87;55.84;101840.34;4953511;28;20038;-67
2023/02/19 05:58:26;;;;;;;2.63;0.20;;;;;;;2.89;55.71;101848.94;4959652;28;20506;-66
2023/02/19 06:00:52;;;;;;;5.75;0.10;;;;;;;2.91;55.45;101849.81;4954569;28;20398;-67
2023/02/19 06:03:17;;;;;;;0.57;0.10;;;;;;;2.90;55.75;101850.69;4953209;28;20052;-66
2023/02/19 06:05:43;;;;;;;3.40;0.20;;;;;;;2.86;55.55;101857.53;4952756;28;20407;-66
2023/02/19 06:08:12;;;;;;;1.58;0.10;;;;;;;2.91;55.72;101865.31;4954871;28;20136;-67
2023/02/19 06:10:40;;;;;;;1.17;0.10;;;;;;;2.91;55.61;101880.78;4951750;28;20041;-66
2023/02/19 06:13:09;;;;;;;2.47;0.10;;;;;;;2.91;55.64;101873.06;4959508;28;20039;-67
2023/02/19 06:15:36;;;;;;;0.98;0.10;;;;;;;2.86;55.52;101877.31;4951746;28;21085;-66
2023/02/19 06:18:02;;;;;;;1.17;0.30;;;;;;;2.83;55.84;101882.47;4938745;28;20043;-66
2023/02/19 06:20:28;;;;;;;4.60;0.30;;;;;;;2.85;56.01;101891.09;4968380;28;20117;-72
2023/02/19 06:22:54;;;;;;;3.20;0.20;;;;;;;2.82;56.01;101891.91;4959150;28;20096;-69
2023/02/19 06:25:19;;;;;;;5.32;0.10;;;;;;;2.84;55.73;101910.00;4954878;28;20495;-68
2023/02/19 06:27:45;;;;;;;3.75;0.10;;;;;;;2.88;55.94;101916.94;4951825;28;20033;-68
2023/02/19 06:30:11;;;;;;;1.10;0.25;;;;;;;2.82;56.13;101916.88;4954643;28;20614;-68
2023/02/19 06:32:36;;;;;;;1.45;0.10;;;;;;;2.84;55.83;101928.09;4951861;28;20499;-75
2023/02/19 06:35:03;;;;;;;1.00;0.20;;;;;;;2.85;56.02;101928.09;4976629;28;20057;-75
2023/02/19 06:37:29;;;;;;;0.88;0.10;;;;;;;2.84;56.18;101936.69;4953396;28;20034;-71
2023/02/19 06:39:54;;;;;;;2.38;0.20;;;;;;;2.89;55.86;101947.06;4959718;28;20052;-67
2023/02/19 06:42:20;;;;;;;1.08;0.28;;;;;;;2.81;55.62;101946.13;4952306;28;20036;-69
2023/02/19 06:44:45;;;;;;;4.60;0.50;;;;;;;2.77;56.04;101956.41;4958308;28;20092;-68
2023/02/19 06:47:11;;;;;;;1.48;0.15;;;;;;;2.73;56.11;101953.78;4968857;28;20066;-68
2023/02/19 06:49:38;;;;;;;4.40;0.30;;;;;;;2.82;56.31;101969.38;4953573;28;20054;-70
2023/02/19 06:52:04;;;;;;;3.80;1.27;;;;;;;2.84;56.15;101972.84;4952260;28;20039;-70
2023/02/19 06:54:32;;;;;;;3.03;0.47;;;;;;;2.81;56.13;101977.13;4952446;28;20034;-70
2023/02/19 06:56:58;;;;;;;4.60;0.08;;;;;;;2.79;55.72;101984.84;4952124;28;20034;-70
2023/02/19 06:59:24;;;;;;;5.68;0.17;;;;;;;2.80;55.69;101990.88;4950458;28;20468;-70
2023/02/19 07:01:50;;;;;;;3.67;0.20;;;;;;;2.74;55.83;101989.97;4954153;28;20527;-70
2023/02/19 07:04:16;;;;;;;3.35;0.40;;;;;;;2.75;56.00;101990.81;4953089;28;20046;-70
2023/02/19 07:06:42;;;;;;;2.80;0.20;;;;;;;2.79;55.92;101999.47;4952079;28;20610;-69
2023/02/19 07:09:09;;;;;;;0.95;0.10;;;;;;;2.81;55.65;101992.63;4953586;28;20130;-70
2023/02/19 07:11:37;;;;;;;1.55;0.20;;;;;;;2.90;56.07;101990.13;4949897;28;20034;-70
2023/02/19 07:14:08;;;;;;;1.70;0.20;;;;;;;2.91;56.10;101995.31;4952266;28;20104;-68
2023/02/19 07:16:35;;;;;;;1.05;0.10;;;;;;;2.94;55.92;101999.63;4951015;28;20241;-68
2023/02/19 07:19:01;;;;;;;2.30;0.20;;;;;;;2.94;55.66;102004.81;4966126;28;20089;-68
2023/02/19 07:21:28;;;;;;;0.38;0.10;;;;;;;2.90;55.58;102010.78;4958019;28;20415;-68
2023/02/19 07:23:54;;;;;;;3.83;0.20;;;;;;;2.84;55.60;102021.91;4956193;28;20058;-67
2023/02/19 07:26:20;;;;;;;1.10;0.75;;;;;;;2.80;55.54;102021.84;4955649;28;20026;-70
2023/02/19 07:28:50;;;;;;;2.97;0.55;;;;;;;2.77;55.63;102030.44;4955292;28;20035;-66
2023/02/19 07:31:17;;;;;;;0.68;0.10;;;;;;;2.82;55.54;102035.66;4972926;28;20034;-66
2023/02/19 07:33:43;;;;;;;4.82;0.30;;;;;;;2.82;55.30;102030.47;4961467;28;20132;-64
2023/02/19 07:36:10;;;;;;;4.28;0.45;;;;;;;2.81;55.65;102032.22;4959039;28;20042;-65
2023/02/19 07:38:36;;;;;;;2.92;0.10;;;;;;;2.83;55.51;102037.41;4951130;28;20086;-65
2023/02/19 07:41:03;;;;;;;2.60;0.32;;;;;;;2.89;55.25;102027.09;4958577;28;20404;-66
2023/02/19 07:43:32;;;;;;;1.40;0.10;;;;;;;3.37;56.75;102026.75;4968014;28;20803;-65
2023/02/19 07:46:02;;;;;;;1.00;0.10;;;;;;;5.51;53.39;102013.84;4960351;28;20499;-66
2023/02/19 07:48:27;;;;;;;3.63;0.40;;;;;;;7.47;50.07;102018.16;4953025;28;20202;-65
2023/02/19 07:50:55;;;;;;;2.50;0.10;;;;;;;9.04;46.28;102023.31;4958204;28;20038;-66
2023/02/19 07:53:22;;;;;;;1.85;0.50;;;;;;;10.19;43.08;102035.22;4954422;28;20034;-67
2023/02/19 07:55:47;;;;;;;8.85;0.20;;;;;;;11.00;42.06;102030.03;4958085;28;20097;-67
2023/02/19 07:58:13;;;;;;;4.38;0.20;;;;;;;11.61;36.82;102025.03;4955765;28;20035;-66
2023/02/19 08:00:39;;;;;;;3.25;0.47;;;;;;;12.00;36.16;102029.25;4957285;28;20210;-67
2023/02/19 08:03:05;;;;;;;3.03;0.85;;;;;;;12.39;34.42;102029.03;4959844;28;20487;-65
2023/02/19 08:05:35;;;;;;;3.70;0.30;;;;;;;13.28;34.63;102032.41;4949833;28;20597;-67
2023/02/19 08:08:00;;;;;;;2.67;0.60;;;;;;;13.78;33.05;102034.25;4957825;28;20062;-64
2023/02/19 08:13:21;;;;;;;1.95;0.20;;;;;;;14.13;33.91;102025.09;4954085;28;20736;-67
2023/02/19 08:15:49;;;;;;;0.63;0.25;;;;;;;14.34;31.29;102040.97;4959639;28;20057;-67
2023/02/19 08:18:16;;;;;;;4.13;0.20;;;;;;;14.34;29.87;102025.19;4954853;28;20081;-67
2023/02/19 08:20:43;;;;;;;4.03;0.20;;;;;;;14.19;32.20;102042.44;4960194;28;20023;-66
2023/02/19 08:23:10;;;;;;;2.05;0.20;;;;;;;13.87;31.42;102051.47;4959479;28;20784;-66
2023/02/19 08:25:37;;;;;;;2.85;0.65;;;;;;;13.38;31.80;102056.59;4952344;28;20435;-66
2023/02/19 08:28:03;;;;;;;2.30;0.10;;;;;;;13.64;31.21;102054.91;4961301;28;20276;-65
2023/02/19 08:30:30;;;;;;;3.53;0.43;;;;;;;13.94;32.47;102068.72;4951908;28;21583;-67
2023/02/19 08:32:58;;;;;;;2.70;0.10;;;;;;;14.33;30.85;102071.69;4964588;28;20730;-65
2023/02/19 08:35:24;;;;;;;1.63;0.35;;;;;;;14.31;31.37;102068.25;4960661;28;20488;-65
2023/02/19 08:37:49;;;;;;;2.97;0.30;;;;;;;13.83;31.08;102069.13;4970996;28;20046;-64
2023/02/19 08:40:15;;;;;;;8.60;0.52;;;;;;;13.51;32.90;102073.66;4952971;28;20042;-65
2023/02/19 08:42:41;;;;;;;0.95;0.30;;;;;;;13.36;31.69;102078.56;4956210;28;20116;-66
2023/02/19 08:45:07;;;;;;;4.32;0.30;;;;;;;13.22;31.87;102081.63;4954880;28;20573;-67
2023/02/19 08:47:37;;;;;;;2.30;0.15;;;;;;;12.31;33.62;102089.53;4951100;28;20038;-66
2023/02/19 08:50:04;;;;;;;2.33;0.20;;;;;;;12.63;33.54;102100.91;4955012;28;20683;-67
2023/02/19 08:52:30;;;;;;;5.25;0.17;;;;;;;12.37;34.86;102114.75;4968207;28;20436;-67
2023/02/19 08:54:55;;;;;;;4.93;0.20;;;;;;;12.10;33.83;102109.34;4959511;28;20049;-66
2023/02/19 08:57:21;;;;;;;2.67;0.22;;;;;;;11.87;35.72;102115.22;4949122;28;20203;-66
2023/02/19 08:59:46;;;;;;;1.25;0.10;;;;;;;11.88;35.19;102119.53;4958159;28;20593;-67
2023/02/19 09:02:12;;;;;;;3.85;0.17;;;;;;;11.94;34.97;102131.63;4942097;28;20299;-66
2023/02/19 09:04:38;;;;;;;4.05;0.10;;;;;;;11.48;37.08;102133.56;4952491;28;20042;-67
2023/02/19 09:07:08;;;;;;;5.88;0.38;;;;;;;10.51;37.66;102153.09;4952495;28;20102;-67
2023/02/19 09:09:36;;;;;;;2.22;0.32;;;;;;;10.30;39.28;102162.19;4949014;28;20053;-67
2023/02/19 09:12:10;;;;;;;1.65;0.25;;;;;;;10.25;40.11;102166.63;4954781;28;20157;-66
2023/02/19 09:14:36;;;;;;;4.70;0.45;;;;;;;9.26;39.20;102178.59;4949859;28;20097;-66
2023/02/19 09:17:04;;;;;;;3.08;0.17;;;;;;;9.27;41.57;102179.47;4954696;28;20048;-67
2023/02/19 09:19:30;;;;;;;1.63;0.10;;;;;;;9.50;40.51;102186.97;4949512;28;20042;-66
2023/02/19 09:21:56;;;;;;;3.83;0.20;;;;;;;9.73;40.08;102187.50;4967210;28;20030;-67
2023/02/19 09:24:21;;;;;;;0.88;0.57;;;;;;;9.66;40.08;102180.66;4950770;28;20499;-66
2023/02/19 09:26:51;;;;;;;2.72;0.57;;;;;;;9.55;38.66;102190.38;4954897;28;20038;-66
2023/02/19 09:29:18;;;;;;;5.07;0.10;;;;;;;9.19;41.76;102203.06;4949690;28;20114;-67
2023/02/19 09:31:43;;;;;;;3.75;0.30;;;;;;;8.90;40.54;102206.03;4952889;28;20023;-66
2023/02/19 09:34:10;;;;;;;3.42;0.30;;;;;;;8.26;42.03;102212.72;4952168;28;20078;-66
2023/02/19 09:36:36;;;;;;;1.33;0.17;;;;;;;8.04;41.99;102212.03;4950061;28;20487;-66
2023/02/19 09:39:03;;;;;;;2.47;0.30;;;;;;;8.09;42.09;102221.56;4967037;28;20035;-67
2023/02/19 09:41:31;;;;;;;1.17;0.30;;;;;;;7.71;42.38;102225.31;4949890;28;20045;-66
2023/02/19 09:43:59;;;;;;;1.98;0.30;;;;;;;7.97;42.44;102226.84;4950388;28;20042;-66
2023/02/19 09:46:40;;;;;;;1.80;0.38;;;;;;;8.21;42.26;102225.78;4950789;28;20482;-67
2023/02/19 09:49:21;;;;;;;4.10;0.10;;;;;;;9.07;40.78;102224.91;4968352;28;20054;-67
2023/02/19 09:51:57;;;;;;;2.45;0.20;;;;;;;9.36;39.04;102227.16;4950981;28;21795;-68
2023/02/19 09:54:25;;;;;;;1.40;0.05;;;;;;;9.18;40.22;102227.41;4955798;28;20137;-66
2023/02/19 09:56:54;;;;;;;1.38;0.50;;;;;;;8.76;39.59;102225.28;4953215;28;20077;-65
2023/02/19 09:59:35;;;;;;;2.92;0.50;;;;;;;8.53;40.77;102222.88;4947017;28;20074;-67
2023/02/19 10:02:09;;;;;;;2.35;0.20;;;;;;;8.05;40.47;102219.84;4953519;28;20299;-67
2023/02/19 10:04:41;;;;;;;0.98;0.38;;;;;;;7.81;42.29;102218.28;4949124;28;20042;-67
2023/02/19 10:07:12;;;;;;;2.45;0.15;;;;;;;8.39;40.29;102227.38;4957329;28;20060;-67
2023/02/19 10:09:37;;;;;;;6.53;0.95;;;;;;;8.76;38.84;102219.19;4949663;28;21378;-68
2023/02/19 10:12:13;;;;;;;0.80;0.10;;;;;;;9.33;38.43;102226.34;4953182;28;20076;-67
2023/02/19 10:14:43;;;;;;;3.83;0.10;;;;;;;9.71;37.84;102228.41;4946907;28;20828;-67
2023/02/19 10:17:20;;;;;;;5.20;0.20;;;;;;;9.15;37.66;102232.66;4951744;28;20060;-67
2023/02/19 10:19:46;;;;;;;2.10;0.25;;;;;;;9.71;38.62;102231.03;4958174;28;20357;-65
2023/02/19 10:22:12;;;;;;;0.70;0.05;;;;;;;10.44;37.11;102246.44;4953619;28;21123;-66
2023/02/19 10:24:40;;;;;;;1.75;0.10;;;;;;;10.89;35.56;102250.88;4947866;28;20077;-66
2023/02/19 10:27:13;;;;;;;3.25;0.30;;;;;;;10.82;35.73;102255.38;4951806;28;20384;-65
2023/02/19 10:29:39;;;;;;;1.65;0.40;;;;;;;10.63;35.05;102263.50;4951468;28;21533;-67
2023/02/19 10:32:22;;;;;;;1.13;0.10;;;;;;;10.57;35.88;102274.09;4956011;28;20027;-67
2023/02/19 10:35:06;;;;;;;2.80;0.25;;;;;;;10.31;36.59;102281.53;4949417;28;20232;-67
2023/02/19 10:37:32;;;;;;;3.13;0.50;;;;;;;10.09;36.39;102289.69;4947022;28;20102;-66
2023/02/19 10:39:58;;;;;;;1.63;0.55;;;;;;;9.88;37.20;102297.84;4950697;28;20039;-66
2023/02/19 10:42:24;;;;;;;6.38;0.10;;;;;;;9.53;37.84;102286.13;4950642;28;20181;-66
2023/02/19 10:45:00;;;;;;;1.80;0.10;;;;;;;9.02;37.99;102284.09;4951157;28;20043;-66
2023/02/19 10:47:28;;;;;;;7.72;0.95;;;;;;;8.91;37.43;102297.25;4948580;28;20034;-67
2023/02/19 10:49:59;;;;;;;5.85;0.10;;;;;;;9.42;37.04;102293.22;4955380;28;20133;-67
2023/02/19 10:52:34;;;;;;;1.90;0.20;;;;;;;9.37;36.51;102295.88;4967328;28;20061;-66
2023/02/19 10:55:33;;;;;;;3.72;0.10;;;;;;;9.78;36.40;102297.94;4958963;28;20034;-66
2023/02/19 10:58:26;;;;;;;1.40;0.40;;;;;;;10.20;34.50;102294.75;4954252;28;20089;-67
2023/02/19 11:01:18;;;;;;;1.13;0.40;;;;;;;10.80;35.36;102296.34;4923677;28;20106;-67
2023/02/19 11:03:44;;;;;;;;;;;;;;;10.46;34.63;102293.44;4943623;28;20054;-67
2023/02/19 11:06:13;;;;;;;0.30;0.00;;;;;;;9.79;34.81;102296.22;4970523;28;20451;-67
2023/02/19 11:08:52;;;;;;;1.50;0.40;;;;;;;9.88;34.72;102292.63;4950393;28;20114;-67
2023/02/19 11:11:38;;;;;;;3.00;0.65;;;;;;;10.36;34.06;102292.75;4953634;28;20118;-66
2023/02/19 11:14:17;;;;;;;2.42;0.30;;;;;;;10.53;34.88;102292.47;4957632;28;20683;-66
2023/02/19 11:16:46;;;;;;;0.75;0.35;;;;;;;10.86;34.75;102296.28;4952865;28;20042;-67
2023/02/19 11:19:35;;;;;;;5.68;0.63;;;;;;;10.08;35.94;102298.44;4954685;28;20133;-67
2023/02/19 11:22:01;;;;;;;2.55;0.30;;;;;;;10.01;35.17;102302.00;4987182;28;20438;-67
2023/02/19 11:24:33;;;;;;;2.95;0.10;;;;;;;9.64;35.98;102299.88;4952441;28;20046;-66
2023/02/19 11:27:02;;;;;;;1.35;0.10;;;;;;;9.57;35.50;102308.69;4962263;28;20030;-67
2023/02/19 11:29:33;;;;;;;3.25;0.20;;;;;;;9.66;36.51;102310.31;4950137;28;20333;-66
2023/02/19 11:32:17;;;;;;;2.60;0.38;;;;;;;9.92;34.54;102304.75;4957272;28;20042;-67
2023/02/19 11:34:42;;;;;;;2.83;0.10;;;;;;;9.87;33.78;102294.38;4951261;28;20129;-66
2023/02/19 11:37:14;;;;;;;1.13;0.20;;;;;;;9.80;34.96;102296.19;4962747;28;20035;-66
2023/02/19 11:39:48;;;;;;;3.33;0.10;;;;;;;9.97;34.22;102288.13;4949413;28;20530;-67
2023/02/19 11:42:34;;;;;;;1.90;0.40;;;;;;;10.31;33.48;102282.38;4975915;28;20056;-66
2023/02/19 11:45:11;;;;;;;1.55;0.10;;;;;;;10.32;33.29;102293.69;4960360;28;20042;-66
2023/02/19 11:48:14;;;;;;;5.43;0.28;;;;;;;10.05;35.17;102295.84;4961528;28;20053;-65
2023/02/19 11:50:52;;;;;;;2.83;0.10;;;;;;;10.01;34.01;102299.38;4973292;28;20065;-67
2023/02/19 11:53:32;;;;;;;3.22;0.20;;;;;;;9.32;34.35;102301.16;4953493;28;20117;-67
2023/02/19 11:56:24;;;;;;;2.67;0.32;;;;;;;8.66;35.74;102301.81;4984967;28;20513;-67
2023/02/19 11:59:00;;;;;;;11.63;1.73;;;;;;;8.35;36.11;102301.22;4948937;28;20049;-66
2023/02/19 12:01:41;;;;;;;2.72;0.43;;;;;;;8.12;36.38;102304.00;4936492;28;67715;-67
2023/02/19 12:04:25;;;;;;;2.40;0.85;;;;;;;8.06;36.67;102299.69;4956020;28;20137;-67
2023/02/19 12:06:50;;;;;;;4.10;0.40;;;;;;;7.98;36.08;102300.59;4951606;28;20066;-66
2023/02/19 12:09:29;;;;;;;3.88;0.73;;;;;;;8.07;36.10;102296.22;4953439;28;20208;-66
2023/02/19 12:12:19;;;;;;;3.08;0.55;;;;;;;9.21;35.27;102297.81;4937890;28;20038;-67
2023/02/19 12:15:11;;;;;;;3.42;0.13;;;;;;;9.46;34.84;102294.91;4940821;28;20110;-67